createdAt,value
2023-05-19T00:01:37.855Z,11.83
2023-05-19T00:04:05.832Z,11.85
2023-05-19T00:06:33.714Z,11.84
2023-05-19T00:09:07.437Z,11.77
2023-05-19T00:11:38.896Z,11.85
2023-05-19T00:14:08.454Z,11.90
2023-05-19T00:16:38.102Z,11.95
2023-05-19T00:19:10.364Z,11.73
2023-05-19T00:21:39.328Z,11.84
2023-05-19T00:24:07.686Z,11.91
2023-05-19T00:26:37.325Z,11.86
2023-05-19T00:29:06.032Z,11.93
2023-05-19T00:31:34.709Z,11.87
2023-05-19T00:34:02.325Z,11.80
2023-05-19T00:36:30.008Z,11.83
2023-05-19T00:38:57.450Z,11.83
2023-05-19T00:41:26.409Z,11.73
2023-05-19T00:43:54.425Z,11.76
2023-05-19T00:46:23.301Z,11.70
2023-05-19T00:48:50.867Z,11.69
2023-05-19T00:51:19.521Z,11.74
2023-05-19T00:53:49.586Z,11.79
2023-05-19T00:56:19.240Z,11.76
2023-05-19T00:58:47.362Z,11.81
2023-05-19T01:01:17.381Z,11.84
2023-05-19T01:03:45.596Z,11.79
2023-05-19T01:06:15.475Z,11.88
2023-05-19T01:08:43.732Z,11.78
2023-05-19T01:11:11.466Z,11.84
2023-05-19T01:13:41.816Z,11.78
2023-05-19T01:16:18.256Z,11.73
2023-05-19T01:19:11.374Z,11.71
2023-05-19T01:22:13.385Z,11.76
2023-05-19T01:25:03.539Z,11.62
2023-05-19T01:28:03.589Z,11.60
2023-05-19T01:30:33.165Z,11.51
2023-05-19T01:33:07.428Z,11.56
2023-05-19T01:35:39.367Z,11.50
2023-05-19T01:38:10.252Z,11.41
2023-05-19T01:40:41.359Z,11.48
2023-05-19T01:43:20.998Z,11.59
2023-05-19T01:45:51.184Z,11.62
2023-05-19T01:48:19.918Z,11.49
2023-05-19T01:50:48.595Z,11.49
2023-05-19T01:53:16.529Z,11.25
2023-05-19T01:55:50.297Z,11.41
2023-05-19T01:58:29.922Z,11.50
2023-05-19T02:01:16.124Z,11.58
2023-05-19T02:03:54.040Z,11.63
2023-05-19T02:06:56.556Z,11.47
2023-05-19T02:09:40.897Z,11.45
2023-05-19T02:12:38.164Z,11.38
2023-05-19T02:15:16.508Z,11.51
2023-05-19T02:17:51.999Z,11.56
2023-05-19T02:20:22.753Z,11.44
2023-05-19T02:22:50.941Z,11.58
2023-05-19T02:25:19.360Z,11.52
2023-05-19T02:27:49.330Z,11.68
2023-05-19T02:30:17.077Z,11.77
2023-05-19T02:32:46.938Z,11.75
2023-05-19T02:35:16.951Z,11.76
2023-05-19T02:37:44.607Z,11.75
2023-05-19T02:40:12.942Z,11.66
2023-05-19T02:42:41.493Z,11.58
2023-05-19T02:45:10.383Z,11.35
2023-05-19T02:47:41.745Z,11.37
2023-05-19T02:50:09.796Z,11.34
2023-05-19T02:52:37.333Z,11.46
2023-05-19T02:55:06.131Z,11.48
2023-05-19T02:57:34.974Z,11.49
2023-05-19T03:00:03.883Z,11.38
2023-05-19T03:02:35.659Z,11.37
2023-05-19T03:05:04.116Z,11.25
2023-05-19T03:07:32.362Z,11.40
2023-05-19T03:10:00.265Z,11.50
2023-05-19T03:12:27.720Z,11.50
2023-05-19T03:14:55.782Z,11.47
2023-05-19T03:17:23.894Z,11.46
2023-05-19T03:19:53.834Z,11.46
2023-05-19T03:22:23.015Z,11.55
2023-05-19T03:24:51.943Z,11.61
2023-05-19T03:27:22.647Z,11.54
2023-05-19T03:29:51.106Z,11.55
2023-05-19T03:32:21.550Z,11.55
2023-05-19T03:34:51.352Z,11.60
2023-05-19T03:37:19.444Z,11.60
2023-05-19T03:39:47.220Z,11.63
2023-05-19T03:42:14.982Z,11.56
2023-05-19T03:44:42.827Z,11.45
2023-05-19T03:47:11.242Z,11.54
2023-05-19T03:49:59.288Z,11.62
2023-05-19T03:52:53.766Z,11.67
2023-05-19T03:55:41.939Z,11.73
2023-05-19T03:58:10.827Z,11.64
2023-05-19T04:00:38.732Z,11.69
2023-05-19T04:03:08.806Z,11.73
2023-05-19T04:05:36.946Z,11.76
2023-05-19T04:08:05.868Z,11.60
2023-05-19T04:10:33.987Z,11.63
2023-05-19T04:13:02.606Z,11.67
2023-05-19T04:15:30.677Z,11.75
2023-05-19T04:17:58.180Z,11.77
2023-05-19T04:20:26.272Z,11.84
2023-05-19T04:22:54.518Z,11.85
2023-05-19T04:25:28.173Z,11.74
2023-05-19T04:27:58.079Z,11.70
2023-05-19T04:30:26.189Z,11.90
2023-05-19T04:32:55.287Z,11.88
2023-05-19T04:35:23.274Z,11.86
2023-05-19T04:37:54.459Z,11.71
2023-05-19T04:40:31.518Z,11.72
2023-05-19T04:43:02.384Z,11.71
2023-05-19T04:45:33.315Z,11.73
2023-05-19T04:48:02.756Z,11.65
2023-05-19T04:50:32.673Z,11.69
2023-05-19T04:53:01.055Z,11.63
2023-05-19T04:55:30.089Z,11.73
2023-05-19T04:58:00.161Z,11.67
2023-05-19T05:00:29.848Z,11.71
2023-05-19T05:03:07.872Z,11.62
2023-05-19T05:05:36.796Z,11.76
2023-05-19T05:08:04.514Z,11.82
2023-05-19T05:10:40.432Z,11.79
2023-05-19T05:13:09.585Z,11.76
2023-05-19T05:15:39.349Z,11.79
2023-05-19T05:18:07.189Z,11.88
2023-05-19T05:20:36.057Z,11.92
2023-05-19T05:23:03.939Z,12.00
2023-05-19T05:25:33.582Z,11.96
2023-05-19T05:28:05.332Z,11.99
2023-05-19T05:30:35.566Z,11.74
2023-05-19T05:33:04.298Z,11.96
2023-05-19T05:35:35.254Z,11.94
2023-05-19T05:38:04.170Z,11.98
2023-05-19T05:40:33.362Z,12.15
2023-05-19T05:43:01.278Z,12.24
2023-05-19T05:45:32.731Z,12.27
2023-05-19T05:48:01.956Z,12.06
2023-05-19T05:50:32.152Z,12.08
2023-05-19T05:53:01.826Z,12.16
2023-05-19T05:55:30.198Z,12.06
2023-05-19T05:58:02.263Z,12.21
2023-05-19T06:00:31.275Z,12.30
2023-05-19T06:02:59.587Z,12.34
2023-05-19T06:05:27.463Z,12.41
2023-05-19T06:07:56.005Z,12.50
2023-05-19T06:10:26.849Z,12.44
2023-05-19T06:12:56.062Z,12.35
2023-05-19T06:15:27.041Z,12.18
2023-05-19T06:18:05.227Z,12.25
2023-05-19T06:20:33.429Z,12.32
2023-05-19T06:23:01.622Z,12.24
2023-05-19T06:25:30.629Z,12.44
2023-05-19T06:27:58.448Z,12.54
2023-05-19T06:30:26.344Z,12.57
2023-05-19T06:33:08.108Z,12.54
2023-05-19T06:35:35.867Z,12.62
2023-05-19T06:38:03.666Z,12.63
2023-05-19T06:40:31.511Z,12.88
2023-05-19T06:42:59.127Z,12.88
2023-05-19T06:45:53.038Z,12.87
2023-05-19T06:48:21.745Z,12.82
2023-05-19T06:50:50.862Z,12.77
2023-05-19T06:53:21.162Z,12.88
2023-05-19T06:55:59.432Z,13.09
2023-05-19T06:58:30.761Z,12.95
2023-05-19T07:00:59.725Z,12.98
2023-05-19T07:03:31.930Z,12.92
2023-05-19T07:06:00.410Z,12.74
2023-05-19T07:08:28.694Z,12.95
2023-05-19T07:10:57.294Z,12.91
2023-05-19T07:13:27.481Z,12.79
2023-05-19T07:15:56.730Z,12.88
2023-05-19T07:18:25.757Z,13.07
2023-05-19T07:20:54.180Z,13.13
2023-05-19T07:23:21.881Z,13.23
2023-05-19T07:25:50.182Z,13.11
2023-05-19T07:28:17.520Z,13.20
2023-05-19T07:30:45.316Z,13.10
2023-05-19T07:33:12.760Z,13.19
2023-05-19T07:35:40.455Z,13.55
2023-05-19T07:38:07.845Z,13.73
2023-05-19T07:40:35.755Z,13.47
2023-05-19T07:43:03.239Z,13.60
2023-05-19T07:45:30.847Z,13.76
2023-05-19T07:47:58.201Z,14.13
2023-05-19T07:50:26.072Z,14.22
2023-05-19T07:52:53.469Z,14.19
2023-05-19T07:55:23.328Z,13.91
2023-05-19T07:57:51.296Z,13.61
2023-05-19T08:00:19.376Z,13.58
2023-05-19T08:02:47.526Z,13.71
2023-05-19T08:05:15.242Z,13.94
2023-05-19T08:07:42.566Z,14.02
2023-05-19T08:10:10.426Z,14.23
2023-05-19T08:12:37.859Z,14.43
2023-05-19T08:15:05.974Z,14.31
2023-05-19T08:17:33.371Z,14.73
2023-05-19T08:20:00.959Z,14.62
2023-05-19T08:22:28.307Z,14.81
2023-05-19T08:24:57.152Z,14.86
2023-05-19T08:27:24.623Z,15.09
2023-05-19T08:29:52.278Z,15.15
2023-05-19T08:32:19.624Z,14.58
2023-05-19T08:34:47.348Z,14.90
2023-05-19T08:37:14.809Z,15.13
2023-05-19T08:39:42.823Z,15.13
2023-05-19T08:42:10.391Z,14.95
2023-05-19T08:44:38.354Z,14.86
2023-05-19T08:47:06.540Z,15.24
2023-05-19T08:49:43.079Z,15.33
2023-05-19T08:52:19.924Z,15.72
2023-05-19T08:54:55.069Z,16.05
2023-05-19T08:57:25.303Z,16.15
2023-05-19T08:59:55.068Z,16.23
2023-05-19T09:02:23.757Z,16.22
2023-05-19T09:04:53.022Z,16.03
2023-05-19T09:07:21.360Z,16.40
2023-05-19T09:09:49.512Z,16.30
2023-05-19T09:12:16.937Z,16.23
2023-05-19T09:14:44.674Z,16.19
2023-05-19T09:17:12.202Z,16.01
2023-05-19T09:19:44.691Z,16.03
2023-05-19T09:22:12.061Z,15.86
2023-05-19T09:24:40.705Z,15.69
2023-05-19T09:27:08.410Z,15.96
2023-05-19T09:29:36.174Z,16.25
2023-05-19T09:32:05.452Z,16.39
2023-05-19T09:34:33.204Z,16.79
2023-05-19T09:37:00.694Z,17.13
2023-05-19T09:39:29.040Z,17.92
2023-05-19T09:41:58.989Z,18.00
2023-05-19T09:44:30.743Z,17.67
2023-05-19T09:46:58.896Z,17.83
2023-05-19T09:49:33.035Z,19.18
2023-05-19T09:52:06.547Z,18.62
2023-05-19T09:54:34.853Z,18.37
2023-05-19T09:57:04.827Z,18.52
2023-05-19T09:59:34.085Z,18.56
2023-05-19T10:02:04.200Z,18.41
2023-05-19T10:04:32.355Z,18.74
2023-05-19T10:07:00.713Z,19.17
2023-05-19T10:09:30.122Z,18.94
2023-05-19T10:11:59.718Z,18.85
2023-05-19T10:14:28.998Z,18.26
2023-05-19T10:16:58.911Z,18.31
2023-05-19T10:19:30.191Z,17.95
2023-05-19T10:21:57.906Z,18.22
2023-05-19T10:24:26.813Z,18.85
2023-05-19T10:26:56.833Z,18.36
2023-05-19T10:29:29.295Z,18.05
2023-05-19T10:32:01.360Z,18.61
2023-05-19T10:35:07.688Z,18.84
2023-05-19T10:37:51.864Z,18.94
2023-05-19T10:40:33.201Z,18.99
2023-05-19T10:43:26.250Z,18.85
2023-05-19T10:45:55.385Z,19.09
2023-05-19T10:48:23.372Z,19.18
2023-05-19T10:50:55.313Z,19.34
2023-05-19T10:53:23.001Z,19.74
2023-05-19T10:56:02.765Z,19.71
2023-05-19T10:58:49.510Z,20.17
2023-05-19T11:01:19.505Z,20.38
2023-05-19T11:03:53.388Z,20.49
2023-05-19T11:06:32.781Z,20.40
2023-05-19T11:09:14.868Z,20.50
2023-05-19T11:11:54.161Z,20.35
2023-05-19T11:14:23.529Z,19.93
2023-05-19T11:16:53.266Z,20.14
2023-05-19T11:19:26.640Z,20.58
2023-05-19T11:21:55.740Z,20.72
2023-05-19T11:24:36.115Z,20.82
2023-05-19T11:27:24.893Z,20.73
2023-05-19T11:29:52.652Z,20.63
2023-05-19T11:32:22.154Z,21.13
2023-05-19T11:34:50.474Z,21.78
2023-05-19T11:37:18.184Z,22.35
2023-05-19T11:39:49.052Z,22.59
2023-05-19T11:42:16.906Z,22.16
2023-05-19T11:44:48.039Z,21.78
2023-05-19T11:47:17.214Z,21.93
2023-05-19T11:49:46.123Z,22.29
2023-05-19T11:52:14.324Z,21.62
2023-05-19T11:54:44.576Z,21.71
2023-05-19T11:57:12.324Z,22.16
2023-05-19T11:59:45.825Z,22.50
2023-05-19T12:02:14.202Z,22.96
2023-05-19T12:04:41.734Z,23.05
2023-05-19T12:07:12.517Z,23.65
2023-05-19T12:09:40.465Z,23.87
2023-05-19T12:12:08.591Z,23.36
2023-05-19T12:14:36.302Z,23.52
2023-05-19T12:17:18.366Z,23.87
2023-05-19T12:19:48.009Z,24.45
2023-05-19T12:22:17.583Z,24.13
2023-05-19T12:24:46.512Z,24.87
2023-05-19T12:27:23.778Z,24.79
2023-05-19T12:29:52.674Z,24.77
2023-05-19T12:32:25.676Z,24.63
2023-05-19T12:34:54.786Z,24.96
2023-05-19T12:37:26.333Z,24.41
2023-05-19T12:39:56.470Z,24.03
2023-05-19T12:42:31.513Z,23.80
2023-05-19T12:45:01.557Z,24.27
2023-05-19T12:47:33.407Z,23.98
2023-05-19T12:50:04.997Z,23.27
2023-05-19T12:52:35.820Z,23.79
2023-05-19T12:55:07.559Z,24.21
2023-05-19T12:57:39.343Z,24.07
2023-05-19T13:00:25.807Z,23.97
2023-05-19T13:03:03.183Z,24.11
2023-05-19T13:05:50.684Z,23.94
2023-05-19T13:08:24.236Z,23.82
2023-05-19T13:10:51.936Z,24.03
2023-05-19T13:13:20.492Z,23.51
2023-05-19T13:15:49.300Z,22.95
2023-05-19T13:18:17.991Z,23.45
2023-05-19T13:20:47.023Z,23.69
2023-05-19T13:23:14.850Z,24.08
2023-05-19T13:25:43.293Z,24.69
2023-05-19T13:28:11.394Z,24.97
2023-05-19T13:30:40.432Z,25.20
2023-05-19T13:33:08.301Z,24.63
2023-05-19T13:35:39.154Z,24.34
2023-05-19T13:38:10.065Z,24.41
2023-05-19T13:40:39.994Z,24.43
2023-05-19T13:43:09.129Z,24.57
2023-05-19T13:45:36.736Z,24.16
2023-05-19T13:48:04.918Z,24.11
2023-05-19T13:50:32.657Z,24.11
2023-05-19T13:53:05.172Z,23.99
2023-05-19T13:55:34.343Z,23.77
2023-05-19T13:58:05.051Z,23.84
2023-05-19T14:00:36.820Z,23.97
2023-05-19T14:03:05.095Z,24.20
2023-05-19T14:05:33.499Z,23.33
2023-05-19T14:08:03.813Z,23.49
2023-05-19T14:10:32.709Z,23.24
2023-05-19T14:15:34.319Z,22.88
2023-05-19T14:18:02.710Z,22.84
2023-05-19T14:20:32.121Z,22.71
2023-05-19T14:23:00.251Z,22.65
2023-05-19T14:25:27.701Z,22.67
2023-05-19T14:27:55.473Z,22.70
2023-05-19T14:30:22.864Z,21.93
2023-05-19T14:32:50.616Z,22.09
2023-05-19T14:35:18.070Z,21.97
2023-05-19T14:37:45.774Z,22.33
2023-05-19T14:40:13.683Z,22.66
2023-05-19T14:42:42.734Z,22.87
2023-05-19T14:45:10.693Z,22.98
2023-05-19T14:47:38.328Z,23.12
2023-05-19T14:50:06.561Z,23.67
2023-05-19T14:52:35.884Z,23.78
2023-05-19T14:55:03.407Z,24.12
2023-05-19T14:57:31.586Z,24.13
2023-05-19T14:59:58.872Z,24.05
2023-05-19T15:02:27.648Z,24.31
2023-05-19T15:04:56.935Z,23.96
2023-05-19T15:07:24.824Z,23.52
2023-05-19T15:09:52.397Z,23.44
2023-05-19T15:12:20.150Z,23.80
2023-05-19T15:14:47.543Z,23.83
2023-05-19T15:17:15.560Z,23.88
2023-05-19T15:19:44.659Z,24.09
2023-05-19T15:22:12.325Z,23.72
2023-05-19T15:24:41.352Z,23.93
2023-05-19T15:27:09.390Z,23.88
2023-05-19T15:29:36.803Z,23.77
2023-05-19T15:32:04.653Z,23.17
2023-05-19T15:34:32.054Z,22.94
2023-05-19T15:36:59.743Z,22.59
2023-05-19T15:39:27.126Z,22.50
2023-05-19T15:41:55.093Z,22.76
2023-05-19T15:44:22.919Z,22.78
2023-05-19T15:46:50.911Z,22.72
2023-05-19T15:49:18.404Z,22.48
2023-05-19T15:51:46.161Z,22.32
2023-05-19T15:54:13.569Z,22.01
2023-05-19T15:56:41.439Z,21.83
2023-05-19T15:59:10.330Z,21.64
2023-05-19T16:01:38.171Z,21.42
2023-05-19T16:04:08.116Z,21.35
2023-05-19T16:06:36.038Z,21.26
2023-05-19T16:09:05.178Z,21.12
2023-05-19T16:11:32.944Z,21.03
2023-05-19T16:14:00.326Z,21.12
2023-05-19T16:16:28.203Z,21.02
2023-05-19T16:18:55.961Z,21.19
2023-05-19T16:21:24.609Z,20.99
2023-05-19T16:23:52.242Z,21.10
2023-05-19T16:26:19.903Z,21.10
2023-05-19T16:28:47.366Z,21.14
2023-05-19T16:31:15.187Z,21.22
2023-05-19T16:33:42.850Z,21.23
2023-05-19T16:36:10.948Z,21.18
2023-05-19T16:38:38.350Z,21.08
2023-05-19T16:41:07.198Z,20.98
2023-05-19T16:43:37.305Z,20.99
2023-05-19T16:46:05.544Z,20.87
2023-05-19T16:48:32.982Z,20.73
2023-05-19T16:51:00.791Z,20.65
2023-05-19T16:53:28.223Z,20.57
2023-05-19T16:55:59.255Z,20.51
2023-05-19T16:58:28.832Z,20.44
2023-05-19T17:00:58.814Z,20.39
2023-05-19T17:03:26.363Z,20.22
2023-05-19T17:05:54.297Z,20.24
2023-05-19T17:08:21.751Z,20.23
2023-05-19T17:10:49.570Z,20.12
2023-05-19T17:13:16.934Z,20.12
2023-05-19T17:15:44.636Z,20.00
2023-05-19T17:18:12.763Z,19.81
2023-05-19T17:20:41.828Z,19.59
2023-05-19T17:23:09.665Z,19.47
2023-05-19T17:25:37.422Z,19.29
2023-05-19T17:28:05.128Z,19.01
2023-05-19T17:30:33.215Z,18.98
2023-05-19T17:33:01.083Z,18.80
2023-05-19T17:35:29.028Z,18.85
2023-05-19T17:37:58.048Z,18.72
2023-05-19T17:40:26.390Z,18.60
2023-05-19T17:42:54.015Z,18.58
2023-05-19T17:45:21.810Z,18.60
2023-05-19T17:47:50.536Z,18.50
2023-05-19T17:50:18.981Z,18.41
2023-05-19T17:52:46.860Z,18.38
2023-05-19T17:55:14.960Z,18.31
2023-05-19T17:57:45.215Z,18.18
2023-05-19T18:00:15.470Z,18.13
2023-05-19T18:02:43.740Z,18.01
2023-05-19T18:05:12.296Z,17.79
2023-05-19T18:07:44.436Z,17.80
2023-05-19T18:10:15.627Z,17.72
2023-05-19T18:12:43.203Z,17.73
2023-05-19T18:15:12.002Z,17.67
2023-05-19T18:17:39.488Z,17.56
2023-05-19T18:20:08.590Z,17.39
2023-05-19T18:22:36.654Z,17.35
2023-05-19T18:25:04.892Z,17.37
2023-05-19T18:27:33.665Z,17.31
2023-05-19T18:30:01.339Z,17.19
2023-05-19T18:32:29.497Z,17.28
2023-05-19T18:34:57.324Z,17.21
2023-05-19T18:37:24.928Z,17.21
2023-05-19T18:39:53.112Z,17.12
2023-05-19T18:42:21.732Z,17.03
2023-05-19T18:44:50.891Z,16.98
2023-05-19T18:47:20.105Z,16.88
2023-05-19T18:49:51.049Z,16.87
2023-05-19T18:52:20.063Z,16.71
2023-05-19T18:54:49.002Z,16.57
2023-05-19T18:57:16.443Z,16.48
2023-05-19T18:59:44.152Z,16.43
2023-05-19T19:02:11.718Z,16.43
2023-05-19T19:04:39.949Z,16.36
2023-05-19T19:07:07.474Z,16.27
2023-05-19T19:09:35.626Z,16.16
2023-05-19T19:12:03.312Z,16.22
2023-05-19T19:14:31.280Z,16.08
2023-05-19T19:16:59.127Z,16.08
2023-05-19T19:19:30.914Z,16.06
2023-05-19T19:21:59.751Z,16.13
2023-05-19T19:24:28.877Z,16.13
2023-05-19T19:26:56.464Z,16.22
2023-05-19T19:29:24.874Z,16.14
2023-05-19T19:31:52.343Z,16.03
2023-05-19T19:34:22.627Z,16.10
2023-05-19T19:36:50.093Z,16.15
2023-05-19T19:39:19.500Z,16.41
2023-05-19T19:41:47.256Z,16.39
2023-05-19T19:44:15.079Z,16.34
2023-05-19T19:46:42.651Z,16.28
2023-05-19T19:49:10.746Z,16.32
2023-05-19T19:51:38.121Z,16.24
2023-05-19T19:54:07.462Z,16.12
2023-05-19T19:56:35.529Z,16.24
2023-05-19T19:59:04.243Z,16.36
2023-05-19T20:01:33.898Z,16.34
2023-05-19T20:04:01.981Z,16.32
2023-05-19T20:06:29.879Z,16.11
2023-05-19T20:09:04.550Z,16.06
2023-05-19T20:11:33.877Z,15.75
2023-05-19T20:14:01.625Z,15.67
2023-05-19T20:16:29.116Z,15.58
2023-05-19T20:18:56.883Z,15.48
2023-05-19T20:21:24.331Z,15.62
2023-05-19T20:23:52.927Z,15.55
2023-05-19T20:26:20.775Z,15.64
2023-05-19T20:28:48.669Z,15.58
2023-05-19T20:31:16.143Z,15.71
2023-05-19T20:33:46.549Z,15.43
2023-05-19T20:36:14.023Z,15.63
2023-05-19T20:38:41.917Z,15.54
2023-05-19T20:41:09.312Z,15.37
2023-05-19T20:43:37.258Z,15.16
2023-05-19T20:46:04.749Z,15.22
2023-05-19T20:48:32.476Z,15.13
2023-05-19T20:50:59.881Z,15.23
2023-05-19T20:53:27.577Z,15.25
2023-05-19T20:55:54.956Z,15.18
2023-05-19T20:58:26.936Z,15.24
2023-05-19T21:00:58.077Z,15.23
2023-05-19T21:03:27.271Z,15.20
2023-05-19T21:05:55.185Z,15.26
2023-05-19T21:08:23.818Z,15.40
2023-05-19T21:10:51.495Z,15.33
2023-05-19T21:13:19.153Z,15.20
2023-05-19T21:15:47.723Z,15.14
2023-05-19T21:18:15.428Z,15.08
2023-05-19T21:20:43.081Z,14.98
2023-05-19T21:23:11.102Z,15.01
2023-05-19T21:25:39.834Z,14.98
2023-05-19T21:28:07.477Z,15.05
2023-05-19T21:30:35.208Z,15.02
2023-05-19T21:33:03.051Z,14.91
2023-05-19T21:35:30.511Z,14.59
2023-05-19T21:37:59.434Z,14.54
2023-05-19T21:40:31.387Z,14.65
2023-05-19T21:42:59.116Z,14.72
2023-05-19T21:45:26.543Z,14.72
2023-05-19T21:47:54.238Z,14.81
2023-05-19T21:50:21.631Z,14.79
2023-05-19T21:52:49.303Z,14.87
2023-05-19T21:55:20.377Z,14.77
2023-05-19T21:57:48.101Z,14.70
2023-05-19T22:00:16.005Z,14.78
2023-05-19T22:02:43.909Z,14.73
2023-05-19T22:05:11.744Z,14.73
2023-05-19T22:07:40.559Z,14.82
2023-05-19T22:10:10.783Z,14.70
2023-05-19T22:12:38.584Z,14.75
2023-05-19T22:15:06.854Z,14.63
2023-05-19T22:17:34.549Z,14.73
2023-05-19T22:20:05.489Z,14.60
2023-05-19T22:22:36.986Z,14.55
2023-05-19T22:25:05.282Z,14.54
2023-05-19T22:27:36.545Z,14.63
2023-05-19T22:30:05.761Z,14.63
2023-05-19T22:32:40.522Z,14.60
2023-05-19T22:35:08.602Z,14.54
2023-05-19T22:37:36.279Z,14.48
2023-05-19T22:40:07.665Z,14.42
2023-05-19T22:42:35.537Z,14.52
2023-05-19T22:45:02.924Z,14.52
2023-05-19T22:47:30.675Z,14.44
2023-05-19T22:49:58.069Z,14.26
2023-05-19T22:52:25.796Z,14.29
2023-05-19T22:54:53.148Z,14.38
2023-05-19T22:57:20.822Z,14.37
2023-05-19T22:59:48.327Z,14.35
2023-05-19T23:02:16.218Z,14.32
2023-05-19T23:04:43.737Z,14.21
2023-05-19T23:07:11.509Z,14.06
2023-05-19T23:09:38.826Z,14.18
2023-05-19T23:12:07.186Z,14.17
2023-05-19T23:14:35.857Z,14.15
2023-05-19T23:17:04.671Z,14.11
2023-05-19T23:19:37.096Z,14.12
2023-05-19T23:22:05.660Z,14.12
2023-05-19T23:24:34.280Z,14.09
2023-05-19T23:27:02.208Z,14.08
2023-05-19T23:29:29.572Z,14.01
2023-05-19T23:32:02.797Z,13.92
2023-05-19T23:34:32.848Z,13.84
2023-05-19T23:37:02.241Z,13.79
2023-05-19T23:39:29.626Z,13.72
2023-05-19T23:41:57.390Z,13.77
2023-05-19T23:44:26.414Z,13.63
2023-05-19T23:46:54.174Z,13.54
2023-05-19T23:49:21.552Z,13.55
2023-05-19T23:51:49.233Z,13.46
2023-05-19T23:54:16.535Z,13.36
2023-05-19T23:56:44.176Z,13.42
2023-05-19T23:59:12.178Z,13.40
